createdAt,value
2023-04-06T00:01:21.937Z,99403.67
2023-04-06T00:03:49.720Z,99405.13
2023-04-06T00:06:17.476Z,99402.21
2023-04-06T00:08:45.270Z,99401.86
2023-04-06T00:11:11.927Z,99398.38
2023-04-06T00:13:38.578Z,99399.05
2023-04-06T00:16:06.475Z,99399.23
2023-04-06T00:18:33.382Z,99398.41
2023-04-06T00:21:00.035Z,99393.79
2023-04-06T00:23:26.841Z,99393.52
2023-04-06T00:25:53.616Z,99393.66
2023-04-06T00:28:25.578Z,99393.47
2023-04-06T00:30:55.652Z,99386.17
2023-04-06T00:33:22.857Z,99389.14
2023-04-06T00:35:49.860Z,99384.98
2023-04-06T00:38:16.751Z,99389.41
2023-04-06T00:40:44.772Z,99385.36
2023-04-06T00:43:12.229Z,99382.98
2023-04-06T00:45:39.951Z,99379.05
2023-04-06T00:48:07.529Z,99378.89
2023-04-06T00:50:35.552Z,99379.73
2023-04-06T00:53:02.318Z,99378.87
2023-04-06T00:55:31.207Z,99378.73
2023-04-06T00:57:59.064Z,99379.82
2023-04-06T01:00:31.198Z,99374.95
2023-04-06T01:03:14.517Z,99373.98
2023-04-06T01:05:44.413Z,99375.27
2023-04-06T01:08:19.010Z,99371.73
2023-04-06T01:10:45.814Z,99374.20
2023-04-06T01:13:23.472Z,99370.02
2023-04-06T01:15:55.462Z,99368.10
2023-04-06T01:18:28.619Z,99369.19
2023-04-06T01:21:03.070Z,99370.41
2023-04-06T01:23:29.940Z,99371.64
2023-04-06T01:25:56.678Z,99371.40
2023-04-06T01:28:24.640Z,99365.34
2023-04-06T01:30:55.976Z,99364.66
2023-04-06T01:33:41.563Z,99370.83
2023-04-06T01:36:12.016Z,99374.71
2023-04-06T01:38:41.997Z,99373.34
2023-04-06T01:41:09.352Z,99370.45
2023-04-06T01:43:46.135Z,99366.36
2023-04-06T01:46:13.821Z,99363.83
2023-04-06T01:48:43.283Z,99363.46
2023-04-06T01:51:31.841Z,99360.80
2023-04-06T01:54:01.227Z,99360.27
2023-04-06T01:56:37.627Z,99358.02
2023-04-06T01:59:13.570Z,99357.73
2023-04-06T02:01:42.565Z,99362.61
2023-04-06T02:04:10.735Z,99363.54
2023-04-06T02:06:38.039Z,99362.29
2023-04-06T02:09:05.811Z,99360.72
2023-04-06T02:11:32.798Z,99360.63
2023-04-06T02:14:07.235Z,99352.38
2023-04-06T02:16:47.922Z,99353.52
2023-04-06T02:19:14.665Z,99350.15
2023-04-06T02:21:47.865Z,99353.23
2023-04-06T02:24:15.032Z,99350.79
2023-04-06T02:26:41.859Z,99343.70
2023-04-06T02:32:14.985Z,99346.60
2023-04-06T02:34:43.030Z,99346.95
2023-04-06T02:37:12.811Z,99347.41
2023-04-06T02:39:41.489Z,99345.63
2023-04-06T02:42:10.571Z,99342.35
2023-04-06T02:44:38.758Z,99339.83
2023-04-06T02:47:06.844Z,99340.46
2023-04-06T02:49:35.017Z,99341.45
2023-04-06T02:52:03.467Z,99339.10
2023-04-06T02:54:35.444Z,99339.25
2023-04-06T02:57:03.859Z,99334.79
2023-04-06T02:59:39.595Z,99335.25
2023-04-06T03:02:18.134Z,99332.18
2023-04-06T03:04:46.871Z,99334.65
2023-04-06T03:07:25.265Z,99336.02
2023-04-06T03:09:54.400Z,99334.44
2023-04-06T03:12:23.255Z,99335.90
2023-04-06T03:15:12.464Z,99336.52
2023-04-06T03:17:44.233Z,99329.87
2023-04-06T03:20:18.754Z,99332.85
2023-04-06T03:22:51.611Z,99333.92
2023-04-06T03:25:21.484Z,99335.50
2023-04-06T03:27:49.790Z,99330.27
2023-04-06T03:30:19.912Z,99336.92
2023-04-06T03:32:49.710Z,99334.58
2023-04-06T03:35:17.954Z,99341.55
2023-04-06T03:37:48.646Z,99344.00
2023-04-06T03:40:17.222Z,99344.77
2023-04-06T03:42:45.214Z,99345.50
2023-04-06T03:45:15.317Z,99342.35
2023-04-06T03:47:48.174Z,99339.77
2023-04-06T03:50:16.694Z,99343.67
2023-04-06T03:52:48.432Z,99338.71
2023-04-06T03:55:17.534Z,99333.40
2023-04-06T03:57:45.453Z,99335.23
2023-04-06T04:00:16.678Z,99334.88
2023-04-06T04:02:46.143Z,99337.33
2023-04-06T04:05:14.776Z,99340.79
2023-04-06T04:07:44.654Z,99339.94
2023-04-06T04:10:14.828Z,99343.92
2023-04-06T04:12:43.404Z,99344.50
2023-04-06T04:15:17.219Z,99344.96
2023-04-06T04:17:57.938Z,99348.11
2023-04-06T04:20:26.625Z,99346.47
2023-04-06T04:22:58.174Z,99352.84
2023-04-06T04:25:26.963Z,99350.48
2023-04-06T04:27:56.048Z,99351.39
2023-04-06T04:30:24.951Z,99349.65
2023-04-06T04:32:53.003Z,99349.07
2023-04-06T04:35:22.704Z,99356.83
2023-04-06T04:37:52.328Z,99355.95
2023-04-06T04:40:21.471Z,99354.38
2023-04-06T04:42:53.304Z,99356.98
2023-04-06T04:45:32.055Z,99363.70
2023-04-06T04:48:03.125Z,99362.98
2023-04-06T04:50:37.409Z,99368.14
2023-04-06T04:53:08.511Z,99373.98
2023-04-06T04:55:36.488Z,99378.54
2023-04-06T04:58:05.601Z,99377.02
2023-04-06T05:00:47.441Z,99383.34
2023-04-06T05:03:23.200Z,99376.84
2023-04-06T05:05:58.368Z,99377.33
2023-04-06T05:08:28.074Z,99376.70
2023-04-06T05:10:59.513Z,99376.34
2023-04-06T05:13:31.651Z,99378.21
2023-04-06T05:16:00.109Z,99382.16
2023-04-06T05:18:32.070Z,99378.30
2023-04-06T05:21:00.505Z,99383.65
2023-04-06T05:23:34.671Z,99381.15
2023-04-06T05:26:03.511Z,99377.88
2023-04-06T05:28:32.036Z,99376.06
2023-04-06T05:31:02.184Z,99363.64
2023-04-06T05:33:35.011Z,99373.89
2023-04-06T05:36:14.997Z,99374.58
2023-04-06T05:38:46.594Z,99366.09
2023-04-06T05:41:35.168Z,99366.30
2023-04-06T05:44:03.190Z,99368.98
2023-04-06T05:46:31.853Z,99371.04
2023-04-06T05:49:01.290Z,99367.90
2023-04-06T05:51:32.276Z,99371.27
2023-04-06T05:54:00.496Z,99370.71
2023-04-06T05:56:31.276Z,99370.05
2023-04-06T05:58:59.443Z,99374.42
2023-04-06T06:01:31.587Z,99369.40
2023-04-06T06:04:03.292Z,99372.78
2023-04-06T06:06:33.397Z,99371.37
2023-04-06T06:09:10.571Z,99373.43
2023-04-06T06:11:45.995Z,99369.03
2023-04-06T06:14:15.241Z,99372.30
2023-04-06T06:16:43.555Z,99376.02
2023-04-06T06:19:13.534Z,99382.16
2023-04-06T06:21:42.527Z,99381.88
2023-04-06T06:24:11.390Z,99376.61
2023-04-06T06:26:40.971Z,99371.36
2023-04-06T06:29:14.019Z,99372.99
2023-04-06T06:31:42.531Z,99375.83
2023-04-06T06:34:11.398Z,99375.06
2023-04-06T06:36:40.469Z,99372.77
2023-04-06T06:39:10.456Z,99378.69
2023-04-06T06:41:38.861Z,99377.84
2023-04-06T06:44:07.603Z,99376.88
2023-04-06T06:46:42.507Z,99375.68
2023-04-06T06:49:13.323Z,99378.09
2023-04-06T06:51:41.581Z,99379.98
2023-04-06T06:54:10.086Z,99381.56
2023-04-06T06:56:39.171Z,99386.15
2023-04-06T06:59:08.791Z,99393.27
2023-04-06T07:01:37.903Z,99397.28
2023-04-06T07:04:08.629Z,99396.03
2023-04-06T07:06:40.671Z,99392.42
2023-04-06T07:09:10.718Z,99394.96
2023-04-06T07:11:38.938Z,99396.02
2023-04-06T07:14:07.887Z,99393.36
2023-04-06T07:16:39.953Z,99393.55
2023-04-06T07:19:07.981Z,99396.02
2023-04-06T07:21:37.738Z,99403.13
2023-04-06T07:24:06.240Z,99407.16
2023-04-06T07:26:34.456Z,99401.27
2023-04-06T07:29:04.928Z,99401.77
2023-04-06T07:31:33.589Z,99400.54
2023-04-06T07:34:02.664Z,99403.67
2023-04-06T07:36:36.825Z,99403.01
2023-04-06T07:39:05.850Z,99401.34
2023-04-06T07:41:33.998Z,99400.35
2023-04-06T07:44:02.433Z,99402.73
2023-04-06T07:46:31.086Z,99395.43
2023-04-06T07:49:04.506Z,99401.73
2023-04-06T08:57:57.050Z,99405.51
2023-04-06T09:00:24.359Z,99396.58
2023-04-06T09:02:54.587Z,99399.09
2023-04-06T09:05:22.288Z,99396.66
2023-04-06T09:07:49.372Z,99398.30
2023-04-06T09:10:22.124Z,99398.02
2023-04-06T09:13:08.376Z,99401.21
2023-04-06T09:15:48.653Z,99407.48
2023-04-06T09:18:31.863Z,99413.02
2023-04-06T09:21:03.180Z,99414.69
2023-04-06T09:23:34.395Z,99423.58
2023-04-06T09:26:14.681Z,99425.23
2023-04-06T09:28:56.569Z,99433.60
2023-04-06T09:31:30.802Z,99449.46
2023-04-06T09:33:59.571Z,99449.06
2023-04-06T09:36:35.762Z,99453.23
2023-04-06T09:39:05.348Z,99457.05
2023-04-06T09:44:55.509Z,99463.02
2023-04-06T09:47:29.753Z,99464.02
2023-04-06T09:50:05.903Z,99464.13
2023-04-06T09:52:38.059Z,99468.77
2023-04-06T09:55:05.756Z,99471.83
2023-04-06T09:58:08.045Z,99467.77
2023-04-06T10:00:42.053Z,99471.39
2023-04-06T10:03:39.237Z,99477.40
2023-04-06T10:06:18.349Z,99476.08
2023-04-06T10:08:49.338Z,99474.27
2023-04-06T10:11:19.098Z,99466.90
2023-04-06T10:13:48.209Z,99474.65
2023-04-06T10:16:15.852Z,99477.05
2023-04-06T10:18:51.967Z,99475.58
2023-04-06T10:21:22.376Z,99479.61
2023-04-06T10:23:52.725Z,99478.52
2023-04-06T10:26:21.124Z,99480.16
2023-04-06T10:28:50.680Z,99482.92
2023-04-06T10:31:26.672Z,99485.67
2023-04-06T10:34:03.154Z,99489.71
2023-04-06T10:36:35.889Z,99490.91
2023-04-06T10:39:11.624Z,99495.54
2023-04-06T10:41:43.221Z,99492.53
2023-04-06T10:44:22.697Z,99501.06
2023-04-06T10:46:56.441Z,99500.48
2023-04-06T10:49:27.216Z,99503.81
2023-04-06T10:52:01.575Z,99501.36
2023-04-06T10:54:29.471Z,99505.73
2023-04-06T10:56:57.630Z,99513.38
2023-04-06T10:59:26.476Z,99521.64
2023-04-06T11:01:57.145Z,99515.84
2023-04-06T11:04:25.459Z,99521.89
2023-04-06T11:06:59.078Z,99527.91
2023-04-06T11:09:27.055Z,99522.86
2023-04-06T11:11:54.202Z,99521.86
2023-04-06T11:14:26.906Z,99528.52
2023-04-06T11:16:54.525Z,99534.12
2023-04-06T11:19:21.715Z,99530.50
2023-04-06T11:22:05.287Z,99538.66
2023-04-06T11:24:45.237Z,99538.03
2023-04-06T11:27:16.413Z,99537.06
2023-04-06T11:29:44.233Z,99541.35
2023-04-06T11:32:22.662Z,99541.77
2023-04-06T11:35:11.502Z,99544.52
2023-04-06T11:37:39.053Z,99540.63
2023-04-06T11:40:10.311Z,99544.02
2023-04-06T11:42:51.898Z,99546.23
2023-04-06T11:45:27.124Z,99549.80
2023-04-06T11:48:00.101Z,99551.64
2023-04-06T11:50:36.078Z,99552.50
2023-04-06T11:53:08.041Z,99555.40
2023-04-06T11:55:40.460Z,99558.48
2023-04-06T11:58:09.811Z,99552.42
2023-04-06T12:00:45.815Z,99550.55
2023-04-06T12:03:17.865Z,99548.09
2023-04-06T12:05:50.574Z,99548.92
2023-04-06T12:08:31.941Z,99545.20
2023-04-06T12:10:59.963Z,99553.20
2023-04-06T12:13:29.015Z,99555.46
2023-04-06T12:15:55.844Z,99559.84
2023-04-06T12:18:24.080Z,99558.45
2023-04-06T12:20:54.399Z,99557.59
2023-04-06T12:23:24.823Z,99551.10
2023-04-06T12:25:56.472Z,99548.13
2023-04-06T12:28:27.306Z,99547.64
2023-04-06T12:30:55.792Z,99552.73
2023-04-06T12:33:30.502Z,99549.13
2023-04-06T12:35:58.505Z,99555.03
2023-04-06T12:38:39.637Z,99553.13
2023-04-06T12:41:19.102Z,99550.29
2023-04-06T12:43:46.332Z,99553.86
2023-04-06T12:46:15.878Z,99551.81
2023-04-06T12:48:45.059Z,99554.70
2023-04-06T12:51:12.890Z,99555.39
2023-04-06T12:53:43.031Z,99554.55
2023-04-06T12:56:14.245Z,99551.59
2023-04-06T12:58:42.543Z,99553.30
2023-04-06T13:01:12.021Z,99550.65
2023-04-06T13:03:40.716Z,99551.77
2023-04-06T13:06:08.956Z,99553.67
2023-04-06T13:08:38.442Z,99557.77
2023-04-06T13:11:05.900Z,99557.38
2023-04-06T13:13:34.072Z,99559.20
2023-04-06T13:16:04.557Z,99556.09
2023-04-06T13:18:34.756Z,99558.65
2023-04-06T13:21:02.154Z,99555.85
2023-04-06T13:23:29.793Z,99557.20
2023-04-06T13:26:03.993Z,99561.01
2023-04-06T13:28:31.992Z,99559.13
2023-04-06T13:31:00.018Z,99561.88
2023-04-06T13:33:31.908Z,99563.32
2023-04-06T13:35:59.442Z,99567.05
2023-04-06T13:38:36.344Z,99557.31
2023-04-06T13:41:21.610Z,99557.54
2023-04-06T13:43:49.384Z,99548.52
2023-04-06T13:46:27.123Z,99552.63
2023-04-06T13:48:55.229Z,99552.08
2023-04-06T13:51:22.316Z,99554.95
2023-04-06T13:53:53.092Z,99556.81
2023-04-06T13:56:20.292Z,99556.95
2023-04-06T13:58:48.799Z,99559.51
2023-04-06T14:01:17.439Z,99558.24
2023-04-06T14:03:50.198Z,99556.09
2023-04-06T14:08:50.968Z,99559.12
2023-04-06T14:11:18.131Z,99559.48
2023-04-06T14:13:47.005Z,99562.94
2023-04-06T14:16:15.939Z,99556.73
2023-04-06T14:18:47.579Z,99555.66
2023-04-06T14:21:15.498Z,99558.66
2023-04-06T14:23:43.364Z,99554.02
2023-04-06T14:26:10.117Z,99557.02
2023-04-06T14:28:38.781Z,99555.42
2023-04-06T14:31:16.420Z,99552.23
2023-04-06T14:33:45.100Z,99552.70
2023-04-06T14:36:11.929Z,99550.77
2023-04-06T14:38:39.772Z,99553.92
2023-04-06T14:41:08.725Z,99555.94
2023-04-06T14:43:36.294Z,99556.55
2023-04-06T14:46:03.116Z,99561.94
2023-04-06T14:48:30.273Z,99566.98
2023-04-06T14:50:57.019Z,99566.16
2023-04-06T14:53:24.948Z,99571.66
2023-04-06T14:55:52.579Z,99571.74
2023-04-06T14:58:20.189Z,99566.25
2023-04-06T15:00:47.342Z,99569.91
2023-04-06T15:03:15.889Z,99570.96
2023-04-06T15:05:42.928Z,99568.14
2023-04-06T15:08:10.215Z,99571.19
2023-04-06T15:10:37.130Z,99573.91
2023-04-06T15:13:11.003Z,99575.98
2023-04-06T15:15:38.432Z,99569.41
2023-04-06T15:18:05.280Z,99570.04
2023-04-06T15:20:34.240Z,99570.77
2023-04-06T15:23:01.972Z,99572.49
2023-04-06T15:25:28.616Z,99573.25
2023-04-06T15:27:55.791Z,99576.77
2023-04-06T15:30:22.848Z,99577.27
2023-04-06T15:32:57.891Z,99577.10
2023-04-06T15:35:25.793Z,99574.13
2023-04-06T15:37:52.551Z,99573.64
2023-04-06T15:40:20.358Z,99578.60
2023-04-06T15:42:47.096Z,99575.54
2023-04-06T15:45:13.753Z,99577.39
2023-04-06T15:47:41.045Z,99577.85
2023-04-06T15:50:07.863Z,99583.65
2023-04-06T15:52:36.028Z,99582.09
2023-04-06T15:55:03.146Z,99584.34
2023-04-06T15:57:29.857Z,99585.45
2023-04-06T15:59:57.731Z,99581.73
2023-04-06T16:02:25.188Z,99586.30
2023-04-06T16:04:55.943Z,99590.08
2023-04-06T16:07:22.759Z,99591.55
2023-04-06T16:09:50.923Z,99591.13
2023-04-06T16:12:18.389Z,99591.50
2023-04-06T16:14:46.125Z,99587.98
2023-04-06T16:17:13.573Z,99590.21
2023-04-06T16:19:41.070Z,99588.77
2023-04-06T16:22:07.881Z,99590.82
2023-04-06T16:24:34.667Z,99591.56
2023-04-06T16:27:01.411Z,99588.66
2023-04-06T16:29:27.993Z,99585.89
2023-04-06T16:31:54.632Z,99590.73
2023-04-06T16:34:21.411Z,99588.42
2023-04-06T16:36:48.146Z,99590.54
2023-04-06T16:39:16.377Z,99594.39
2023-04-06T16:41:42.941Z,99599.22
2023-04-06T16:44:10.690Z,99604.32
2023-04-06T16:46:38.282Z,99605.95
2023-04-06T16:49:07.842Z,99606.65
2023-04-06T16:51:36.488Z,99606.74
2023-04-06T16:54:03.660Z,99607.49
2023-04-06T16:56:31.212Z,99613.20
2023-04-06T16:58:57.806Z,99613.92
2023-04-06T17:01:26.251Z,99613.13
2023-04-06T17:03:53.471Z,99616.06
2023-04-06T17:06:20.612Z,99625.59
2023-04-06T17:08:48.759Z,99628.50
2023-04-06T17:11:19.048Z,99639.95
2023-04-06T17:13:51.219Z,99649.48
2023-04-06T17:16:18.911Z,99657.35
2023-04-06T17:18:45.777Z,99658.63
2023-04-06T17:21:16.504Z,99666.41
2023-04-06T17:23:43.756Z,99671.12
2023-04-06T17:26:10.910Z,99678.06
2023-04-06T17:28:37.675Z,99681.66
2023-04-06T17:31:11.449Z,99682.41
2023-04-06T17:33:39.271Z,99687.84
2023-04-06T17:36:07.308Z,99687.45
2023-04-06T17:38:35.117Z,99687.03
2023-04-06T17:41:04.408Z,99688.13
2023-04-06T17:43:31.607Z,99693.34
2023-04-06T17:45:58.196Z,99697.44
2023-04-06T17:48:26.115Z,99701.58
2023-04-06T17:50:52.900Z,99701.96
2023-04-06T17:53:19.985Z,99704.39
2023-04-06T17:55:47.204Z,99707.91
2023-04-06T17:58:15.014Z,99708.21
2023-04-06T18:00:41.896Z,99712.92
2023-04-06T18:03:09.235Z,99716.17
2023-04-06T18:05:36.048Z,99715.13
2023-04-06T18:08:02.593Z,99719.39
2023-04-06T18:10:29.858Z,99719.85
2023-04-06T18:12:56.769Z,99720.82
2023-04-06T18:15:23.339Z,99719.81
2023-04-06T18:17:53.955Z,99724.98
2023-04-06T18:20:20.676Z,99722.98
2023-04-06T18:22:47.407Z,99723.98
2023-04-06T18:25:13.908Z,99726.48
2023-04-06T18:27:40.819Z,99726.59
2023-04-06T18:30:12.322Z,99725.32
2023-04-06T18:32:39.263Z,99730.17
2023-04-06T18:35:08.536Z,99736.02
2023-04-06T18:37:35.992Z,99741.30
2023-04-06T18:40:03.536Z,99741.02
2023-04-06T18:42:30.276Z,99738.92
2023-04-06T18:44:56.842Z,99739.90
2023-04-06T18:47:23.840Z,99741.80
2023-04-06T18:49:50.635Z,99745.52
2023-04-06T18:52:17.289Z,99747.31
2023-04-06T18:54:43.893Z,99748.84
2023-04-06T18:57:10.843Z,99751.87
2023-04-06T18:59:37.391Z,99757.40
2023-04-06T19:02:04.066Z,99761.05
2023-04-06T19:04:31.399Z,99761.86
2023-04-06T19:07:00.121Z,99765.04
2023-04-06T19:09:30.028Z,99769.19
2023-04-06T19:11:57.624Z,99774.30
2023-04-06T19:14:24.251Z,99778.61
2023-04-06T19:16:53.085Z,99778.83
2023-04-06T19:19:20.182Z,99782.81
2023-04-06T19:21:47.423Z,99784.69
2023-04-06T19:24:14.309Z,99784.43
2023-04-06T19:26:41.948Z,99790.57
2023-04-06T19:29:14.121Z,99781.62
2023-04-06T19:31:41.716Z,99786.75
2023-04-06T19:34:08.246Z,99790.64
2023-04-06T19:36:35.669Z,99792.70
2023-04-06T19:39:02.263Z,99791.66
2023-04-06T19:41:29.189Z,99795.91
2023-04-06T19:43:55.985Z,99801.09
2023-04-06T19:46:22.553Z,99805.71
2023-04-06T19:48:49.352Z,99808.89
2023-04-06T19:51:16.182Z,99814.94
2023-04-06T19:53:42.978Z,99812.40
2023-04-06T19:56:09.988Z,99817.44
2023-04-06T19:58:37.481Z,99825.31
2023-04-06T20:01:04.529Z,99823.56
2023-04-06T20:03:32.076Z,99821.60
2023-04-06T20:05:59.096Z,99821.65
2023-04-06T20:08:26.337Z,99820.42
2023-04-06T20:11:03.181Z,99826.70
2023-04-06T20:13:30.400Z,99825.27
2023-04-06T20:15:58.346Z,99837.52
2023-04-06T20:18:31.227Z,99839.60
2023-04-06T20:20:57.979Z,99844.10
2023-04-06T20:23:25.111Z,99848.48
2023-04-06T20:25:55.463Z,99848.42
2023-04-06T20:28:24.309Z,99852.99
2023-04-06T20:30:57.253Z,99859.30
2023-04-06T20:33:24.181Z,99854.15
2023-04-06T20:36:08.958Z,99861.17
2023-04-06T20:38:38.257Z,99854.40
2023-04-06T20:41:05.757Z,99855.43
2023-04-06T20:43:32.454Z,99864.97
2023-04-06T20:46:01.098Z,99868.61
2023-04-06T20:50:59.227Z,99873.84
2023-04-06T20:53:26.240Z,99878.27
2023-04-06T20:55:52.860Z,99877.92
2023-04-06T20:58:23.933Z,99876.83
2023-04-06T21:00:50.476Z,99883.10
2023-04-06T21:03:36.966Z,99885.65
2023-04-06T21:06:03.591Z,99883.33
2023-04-06T21:08:30.330Z,99886.48
2023-04-06T21:10:58.351Z,99888.55
2023-04-06T21:14:41.432Z,99894.14
2023-04-06T21:17:11.009Z,99893.48
2023-04-06T21:19:38.209Z,99895.91
2023-04-06T21:22:04.874Z,99902.45
2023-04-06T21:24:31.521Z,99898.98
2023-04-06T21:26:58.468Z,99896.75
2023-04-06T21:29:31.176Z,99901.59
2023-04-06T21:31:58.326Z,99909.41
2023-04-06T21:34:25.106Z,99906.53
2023-04-06T21:36:54.237Z,99913.45
2023-04-06T21:39:23.417Z,99914.69
2023-04-06T21:41:50.519Z,99916.68
2023-04-06T21:44:17.976Z,99910.00
2023-04-06T21:46:44.576Z,99921.41
2023-04-06T21:49:11.243Z,99924.83
2023-04-06T21:51:37.898Z,99922.23
2023-04-06T21:54:05.125Z,99925.15
2023-04-06T21:56:31.774Z,99927.14
2023-04-06T21:58:58.347Z,99930.91
2023-04-06T22:01:25.197Z,99936.73
2023-04-06T22:03:55.123Z,99939.61
2023-04-06T22:06:25.398Z,99938.04
2023-04-06T22:08:51.988Z,99941.00
2023-04-06T22:11:20.509Z,99946.50
2023-04-06T22:13:47.078Z,99943.06
2023-04-06T22:16:14.687Z,99944.37
2023-04-06T22:18:45.166Z,99943.29
2023-04-06T22:21:11.678Z,99950.50
2023-04-06T22:23:41.484Z,99949.41
2023-04-06T22:26:10.073Z,99951.64
2023-04-06T22:28:37.286Z,99949.05
2023-04-06T22:31:04.145Z,99953.40
2023-04-06T22:33:31.462Z,99952.15
2023-04-06T22:35:58.359Z,99958.09
2023-04-06T22:38:25.339Z,99954.88
2023-04-06T22:40:52.989Z,99954.99
2023-04-06T22:43:19.628Z,99957.48
2023-04-06T22:45:46.252Z,99954.88
2023-04-06T22:48:13.234Z,99953.70
2023-04-06T22:50:39.835Z,99953.91
2023-04-06T22:53:06.455Z,99957.08
2023-04-06T22:55:34.024Z,99955.02
2023-04-06T22:58:00.855Z,99961.77
2023-04-06T23:00:27.388Z,99966.55
2023-04-06T23:02:55.659Z,99966.21
2023-04-06T23:05:22.564Z,99970.19
2023-04-06T23:07:50.644Z,99969.92
2023-04-06T23:10:28.744Z,99970.90
2023-04-06T23:12:56.609Z,99970.07
2023-04-06T23:15:23.431Z,99973.66
2023-04-06T23:17:52.468Z,99969.02
2023-04-06T23:20:19.897Z,99970.75
2023-04-06T23:22:46.426Z,99972.39
2023-04-06T23:25:13.068Z,99972.39
2023-04-06T23:27:40.015Z,99974.36
2023-04-06T23:30:08.684Z,99981.29
2023-04-06T23:32:36.876Z,99975.29
2023-04-06T23:35:03.804Z,99978.55
2023-04-06T23:37:30.851Z,99985.06
2023-04-06T23:39:57.694Z,99982.80
2023-04-06T23:42:28.913Z,99984.08
2023-04-06T23:44:56.692Z,99985.88
2023-04-06T23:47:23.328Z,99989.21
2023-04-06T23:49:50.377Z,99993.45
2023-04-06T23:52:16.942Z,99995.41
2023-04-06T23:54:45.874Z,99993.85
2023-04-06T23:57:12.612Z,99991.89
2023-04-06T23:59:39.510Z,99993.46
